createdAt,value
2017-11-15T00:00:55.349Z,962.06
2017-11-15T00:01:55.325Z,962.09
2017-11-15T00:02:55.310Z,962.12
2017-11-15T00:03:55.295Z,962.14
2017-11-15T00:04:55.277Z,962.11
2017-11-15T00:05:55.260Z,962.12
2017-11-15T00:06:55.246Z,962.09
2017-11-15T00:07:55.227Z,962.09
2017-11-15T00:08:55.211Z,962.08
2017-11-15T00:09:55.194Z,962.11
2017-11-15T00:10:55.178Z,962.08
2017-11-15T00:11:55.163Z,962.11
2017-11-15T00:12:55.148Z,962.1
2017-11-15T00:13:55.128Z,962.08
2017-11-15T00:14:55.118Z,962.1
2017-11-15T00:15:55.095Z,962.05
2017-11-15T00:16:55.084Z,962.06
2017-11-15T00:17:55.062Z,962.04
2017-11-15T00:18:55.046Z,962.05
2017-11-15T00:19:55.029Z,962.05
2017-11-15T00:20:55.014Z,962.03
2017-11-15T00:21:54.997Z,962.08
2017-11-15T00:22:54.981Z,962.06
2017-11-15T00:23:54.963Z,962.03
2017-11-15T00:24:54.947Z,962.08
2017-11-15T00:25:54.931Z,962.02
2017-11-15T00:26:54.915Z,962.04
2017-11-15T00:27:54.896Z,962.06
2017-11-15T00:28:54.881Z,962.08
2017-11-15T00:29:54.865Z,962.05
2017-11-15T00:30:54.848Z,962.06
2017-11-15T00:31:54.831Z,962.07
2017-11-15T00:32:54.815Z,962.09
2017-11-15T00:33:54.805Z,962.09
2017-11-15T00:34:54.791Z,962.08
2017-11-15T00:35:54.765Z,962.11
2017-11-15T00:36:54.756Z,962.17
2017-11-15T00:37:54.733Z,962.1
2017-11-15T00:38:54.716Z,962.12
2017-11-15T00:39:54.700Z,962.14
2017-11-15T00:40:54.683Z,962.11
2017-11-15T00:41:54.668Z,962.16
2017-11-15T00:42:54.651Z,962.17
2017-11-15T00:43:54.633Z,962.2
2017-11-15T00:44:54.616Z,962.15
2017-11-15T00:45:54.606Z,962.21
2017-11-15T00:46:54.584Z,962.21
2017-11-15T00:47:54.568Z,962.2
2017-11-15T00:48:54.550Z,962.24
2017-11-15T00:49:54.553Z,962.27
2017-11-15T00:50:54.522Z,962.25
2017-11-15T00:51:54.501Z,962.26
2017-11-15T00:52:54.483Z,962.24
2017-11-15T00:53:54.469Z,962.25
2017-11-15T00:54:54.452Z,962.25
2017-11-15T00:55:54.436Z,962.23
2017-11-15T00:56:54.420Z,962.2
2017-11-15T00:57:54.402Z,962.25
2017-11-15T00:58:54.386Z,962.23
2017-11-15T00:59:54.371Z,962.22
2017-11-15T01:00:54.353Z,962.24
2017-11-15T01:01:54.337Z,962.24
2017-11-15T01:02:54.335Z,962.24
2017-11-15T01:03:54.302Z,962.25
2017-11-15T01:04:54.293Z,962.22
2017-11-15T01:05:54.270Z,962.23
2017-11-15T01:06:54.253Z,962.2
2017-11-15T01:07:54.237Z,962.21
2017-11-15T01:08:54.220Z,962.2
2017-11-15T01:09:54.204Z,962.14
2017-11-15T01:10:54.187Z,962.17
2017-11-15T01:11:54.171Z,962.2
2017-11-15T01:12:54.153Z,962.22
2017-11-15T01:13:54.139Z,962.21
2017-11-15T01:14:54.120Z,962.2
2017-11-15T01:15:54.109Z,962.21
2017-11-15T01:16:54.089Z,962.23
2017-11-15T01:17:54.073Z,962.26
2017-11-15T01:18:54.055Z,962.25
2017-11-15T01:19:55.302Z,962.23
2017-11-15T01:20:54.023Z,962.25
2017-11-15T01:21:54.007Z,962.28
2017-11-15T01:22:53.990Z,962.26
2017-11-15T01:23:53.977Z,962.23
2017-11-15T01:24:53.968Z,962.2
2017-11-15T01:25:53.939Z,962.24
2017-11-15T01:26:53.924Z,962.2
2017-11-15T01:27:53.911Z,962.17
2017-11-15T01:28:53.891Z,962.12
2017-11-15T01:29:53.897Z,962.13
2017-11-15T01:30:53.859Z,962.06
2017-11-15T01:31:53.844Z,962.09
2017-11-15T01:32:53.830Z,962.05
2017-11-15T01:33:53.811Z,962.09
2017-11-15T01:34:53.813Z,962.09
2017-11-15T01:35:53.777Z,962.13
2017-11-15T01:36:53.762Z,962.1
2017-11-15T01:37:53.744Z,962.09
2017-11-15T01:38:53.727Z,962.07
2017-11-15T01:39:53.710Z,962.01
2017-11-15T01:40:53.695Z,962.02
2017-11-15T01:41:53.678Z,962.01
2017-11-15T01:42:53.662Z,961.99
2017-11-15T01:43:53.648Z,962.04
2017-11-15T01:44:53.627Z,962
2017-11-15T01:45:53.611Z,961.98
2017-11-15T01:46:53.596Z,962
2017-11-15T01:47:53.576Z,962.06
2017-11-15T01:48:53.570Z,962.03
2017-11-15T01:49:53.593Z,962.07
2017-11-15T01:50:53.529Z,962.11
2017-11-15T01:51:53.511Z,962.08
2017-11-15T01:52:53.514Z,962.09
2017-11-15T01:53:53.479Z,962.11
2017-11-15T01:54:53.468Z,962.07
2017-11-15T01:55:53.444Z,962.06
2017-11-15T01:56:53.429Z,962.05
2017-11-15T01:57:53.413Z,962.09
2017-11-15T01:58:53.394Z,962.02
2017-11-15T01:59:53.379Z,962.05
2017-11-15T02:00:53.364Z,961.99
2017-11-15T02:01:53.348Z,962.04
2017-11-15T02:02:53.330Z,962.01
2017-11-15T02:03:53.328Z,961.95
2017-11-15T02:04:53.299Z,961.93
2017-11-15T02:05:53.281Z,961.98
2017-11-15T02:06:53.263Z,961.96
2017-11-15T02:07:53.245Z,962.01
2017-11-15T02:08:53.251Z,961.95
2017-11-15T02:09:53.214Z,961.97
2017-11-15T02:10:53.198Z,961.93
2017-11-15T02:11:53.180Z,961.94
2017-11-15T02:12:53.166Z,961.91
2017-11-15T02:13:53.148Z,961.9
2017-11-15T02:14:53.138Z,961.89
2017-11-15T02:15:53.117Z,961.96
2017-11-15T02:16:53.098Z,961.88
2017-11-15T02:17:53.080Z,961.88
2017-11-15T02:18:53.064Z,961.85
2017-11-15T02:19:53.049Z,961.84
2017-11-15T02:20:53.031Z,961.91
2017-11-15T02:21:53.016Z,961.88
2017-11-15T02:22:52.999Z,961.87
2017-11-15T02:23:52.982Z,961.87
2017-11-15T02:24:52.967Z,961.89
2017-11-15T02:25:52.950Z,961.9
2017-11-15T02:26:52.933Z,961.9
2017-11-15T02:27:52.916Z,961.9
2017-11-15T02:28:52.899Z,961.89
2017-11-15T02:29:52.884Z,961.85
2017-11-15T02:30:52.877Z,961.8
2017-11-15T02:31:52.852Z,961.84
2017-11-15T02:32:52.835Z,961.82
2017-11-15T02:33:52.818Z,961.81
2017-11-15T02:34:52.802Z,961.79
2017-11-15T02:35:52.785Z,961.78
2017-11-15T02:36:52.766Z,961.79
2017-11-15T02:37:52.773Z,961.82
2017-11-15T02:38:52.733Z,961.86
2017-11-15T02:39:52.719Z,961.79
2017-11-15T02:40:52.722Z,961.8
2017-11-15T02:41:52.686Z,961.83
2017-11-15T02:42:52.672Z,961.83
2017-11-15T02:43:52.653Z,961.86
2017-11-15T02:44:52.635Z,961.84
2017-11-15T02:45:52.625Z,961.84
2017-11-15T02:46:52.604Z,961.84
2017-11-15T02:47:52.586Z,961.85
2017-11-15T02:48:52.569Z,961.83
2017-11-15T02:49:52.556Z,961.84
2017-11-15T02:50:52.539Z,961.87
2017-11-15T02:51:52.524Z,961.81
2017-11-15T02:52:52.505Z,961.86
2017-11-15T02:53:52.490Z,961.87
2017-11-15T02:54:52.477Z,961.83
2017-11-15T02:55:52.472Z,961.82
2017-11-15T02:56:52.441Z,961.79
2017-11-15T02:57:52.425Z,961.81
2017-11-15T02:58:52.421Z,961.82
2017-11-15T02:59:52.392Z,961.85
2017-11-15T03:00:52.377Z,961.87
2017-11-15T03:01:52.364Z,961.87
2017-11-15T03:02:52.343Z,961.86
2017-11-15T03:03:52.329Z,961.89
2017-11-15T03:04:52.310Z,961.87
2017-11-15T03:05:52.294Z,961.88
2017-11-15T03:06:52.279Z,961.88
2017-11-15T03:07:52.277Z,961.84
2017-11-15T03:08:52.246Z,961.88
2017-11-15T03:09:52.230Z,961.87
2017-11-15T03:10:52.214Z,961.82
2017-11-15T03:11:52.201Z,961.84
2017-11-15T03:12:52.198Z,961.8
2017-11-15T03:13:52.165Z,961.81
2017-11-15T03:14:52.184Z,961.8
2017-11-15T03:15:52.133Z,961.83
2017-11-15T03:16:52.116Z,961.81
2017-11-15T03:17:52.122Z,961.78
2017-11-15T03:18:52.099Z,961.73
2017-11-15T03:19:52.068Z,961.72
2017-11-15T03:20:52.051Z,961.74
2017-11-15T03:21:52.035Z,961.74
2017-11-15T03:22:52.019Z,961.8
2017-11-15T03:23:52.017Z,961.76
2017-11-15T03:24:51.989Z,961.76
2017-11-15T03:25:51.971Z,961.79
2017-11-15T03:26:51.955Z,961.8
2017-11-15T03:27:51.949Z,961.8
2017-11-15T03:28:51.923Z,961.82
2017-11-15T03:29:51.907Z,961.82
2017-11-15T03:30:51.900Z,961.84
2017-11-15T03:31:51.876Z,961.79
2017-11-15T03:32:51.867Z,961.82
2017-11-15T03:33:51.843Z,961.78
2017-11-15T03:34:51.827Z,961.84
2017-11-15T03:35:51.810Z,961.84
2017-11-15T03:36:51.797Z,961.82
2017-11-15T03:37:51.797Z,961.83
2017-11-15T03:38:51.764Z,961.85
2017-11-15T03:39:51.747Z,961.86
2017-11-15T03:40:51.731Z,961.85
2017-11-15T03:41:51.713Z,961.84
2017-11-15T03:42:51.700Z,961.87
2017-11-15T03:43:51.682Z,961.84
2017-11-15T03:44:51.667Z,961.87
2017-11-15T03:45:51.652Z,961.85
2017-11-15T03:46:51.635Z,961.88
2017-11-15T03:47:51.620Z,961.89
2017-11-15T03:48:51.616Z,961.91
2017-11-15T03:49:51.604Z,961.88
2017-11-15T03:50:51.570Z,961.9
2017-11-15T03:51:51.572Z,961.89
2017-11-15T03:52:51.537Z,961.86
2017-11-15T03:53:51.522Z,961.85
2017-11-15T03:54:51.516Z,961.85
2017-11-15T03:55:51.488Z,961.83
2017-11-15T03:56:51.473Z,961.83
2017-11-15T03:57:51.456Z,961.87
2017-11-15T03:58:51.452Z,961.86
2017-11-15T03:59:51.425Z,961.86
2017-11-15T04:00:51.409Z,961.83
2017-11-15T04:01:51.394Z,961.87
2017-11-15T04:02:51.376Z,961.87
2017-11-15T04:03:51.382Z,961.88
2017-11-15T04:04:51.344Z,961.95
2017-11-15T04:05:51.333Z,961.91
2017-11-15T04:06:51.312Z,961.89
2017-11-15T04:07:51.295Z,961.89
2017-11-15T04:08:51.281Z,961.89
2017-11-15T04:09:51.264Z,961.88
2017-11-15T04:10:51.248Z,961.84
2017-11-15T04:11:51.230Z,961.87
2017-11-15T04:12:51.225Z,961.88
2017-11-15T04:13:51.203Z,961.88
2017-11-15T04:14:51.184Z,961.87
2017-11-15T04:15:51.170Z,961.9
2017-11-15T04:16:51.154Z,961.94
2017-11-15T04:17:51.137Z,961.9
2017-11-15T04:18:51.119Z,961.91
2017-11-15T04:19:51.104Z,961.94
2017-11-15T04:20:51.087Z,961.9
2017-11-15T04:21:51.072Z,961.94
2017-11-15T04:22:51.056Z,961.94
2017-11-15T04:23:51.059Z,961.94
2017-11-15T04:24:51.023Z,961.94
2017-11-15T04:25:51.005Z,961.93
2017-11-15T04:26:50.991Z,961.92
2017-11-15T04:27:50.975Z,961.95
2017-11-15T04:28:50.978Z,961.95
2017-11-15T04:29:50.943Z,961.93
2017-11-15T04:30:50.925Z,961.91
2017-11-15T04:31:50.913Z,961.89
2017-11-15T04:32:50.913Z,961.9
2017-11-15T04:33:50.879Z,961.88
2017-11-15T04:34:50.864Z,961.9
2017-11-15T04:35:50.858Z,961.95
2017-11-15T04:36:50.830Z,961.94
2017-11-15T04:37:50.815Z,961.92
2017-11-15T04:38:50.800Z,961.91
2017-11-15T04:39:50.783Z,961.91
2017-11-15T04:40:50.767Z,961.92
2017-11-15T04:41:50.751Z,961.95
2017-11-15T04:42:50.742Z,961.93
2017-11-15T04:43:50.719Z,961.93
2017-11-15T04:44:50.708Z,961.96
2017-11-15T04:45:50.687Z,961.94
2017-11-15T04:46:50.673Z,961.9
2017-11-15T04:47:50.655Z,961.94
2017-11-15T04:48:50.637Z,961.95
2017-11-15T04:49:50.625Z,961.91
2017-11-15T04:50:50.610Z,961.88
2017-11-15T04:51:50.604Z,961.89
2017-11-15T04:52:50.574Z,961.9
2017-11-15T04:53:50.559Z,961.89
2017-11-15T04:54:50.543Z,961.9
2017-11-15T04:55:50.526Z,961.87
2017-11-15T04:56:50.510Z,961.89
2017-11-15T04:57:50.491Z,961.91
2017-11-15T04:58:50.485Z,961.93
2017-11-15T04:59:50.462Z,961.91
2017-11-15T05:00:50.446Z,961.91
2017-11-15T05:01:50.430Z,961.9
2017-11-15T05:02:50.413Z,961.93
2017-11-15T05:03:50.398Z,961.91
2017-11-15T05:04:50.379Z,961.92
2017-11-15T05:05:50.365Z,961.96
2017-11-15T05:06:50.349Z,961.94
2017-11-15T05:07:50.334Z,961.98
2017-11-15T05:08:50.316Z,962.02
2017-11-15T05:09:50.300Z,962.03
2017-11-15T05:10:50.286Z,962
2017-11-15T05:11:50.269Z,962.06
2017-11-15T05:12:50.252Z,961.98
2017-11-15T05:13:50.237Z,961.97
2017-11-15T05:14:50.222Z,962
2017-11-15T05:15:50.204Z,962.04
2017-11-15T05:16:50.189Z,962.01
2017-11-15T05:17:50.190Z,962.03
2017-11-15T05:18:50.158Z,962.07
2017-11-15T05:19:50.140Z,962.1
2017-11-15T05:20:50.124Z,962.08
2017-11-15T05:21:50.109Z,962.1
2017-11-15T05:22:50.094Z,962.13
2017-11-15T05:23:50.078Z,962.14
2017-11-15T05:24:50.062Z,962.15
2017-11-15T05:25:50.056Z,962.19
2017-11-15T05:26:50.030Z,962.14
2017-11-15T05:27:50.015Z,962.17
2017-11-15T05:28:49.997Z,962.2
2017-11-15T05:29:49.985Z,962.14
2017-11-15T05:30:49.966Z,962.12
2017-11-15T05:31:49.949Z,962.14
2017-11-15T05:32:49.940Z,962.13
2017-11-15T05:33:49.922Z,962.12
2017-11-15T05:34:49.904Z,962.12
2017-11-15T05:35:49.897Z,962.16
2017-11-15T05:36:49.875Z,962.18
2017-11-15T05:37:49.862Z,962.15
2017-11-15T05:38:49.853Z,962.15
2017-11-15T05:39:49.823Z,962.18
2017-11-15T05:40:49.807Z,962.17
2017-11-15T05:41:49.792Z,962.18
2017-11-15T05:42:49.776Z,962.17
2017-11-15T05:43:49.764Z,962.21
2017-11-15T05:44:49.744Z,962.21
2017-11-15T05:45:49.733Z,962.26
2017-11-15T05:46:49.712Z,962.28
2017-11-15T05:47:49.696Z,962.31
2017-11-15T05:48:49.683Z,962.31
2017-11-15T05:49:49.663Z,962.27
2017-11-15T05:50:49.649Z,962.27
2017-11-15T05:51:49.633Z,962.27
2017-11-15T05:52:49.617Z,962.27
2017-11-15T05:53:49.601Z,962.26
2017-11-15T05:54:49.586Z,962.21
2017-11-15T05:55:49.570Z,962.26
2017-11-15T05:56:49.553Z,962.25
2017-11-15T05:57:49.538Z,962.25
2017-11-15T05:58:49.521Z,962.28
2017-11-15T05:59:49.508Z,962.24
2017-11-15T06:00:49.491Z,962.26
2017-11-15T06:01:49.475Z,962.3
2017-11-15T06:02:49.458Z,962.31
2017-11-15T06:03:49.443Z,962.29
2017-11-15T06:04:49.429Z,962.26
2017-11-15T06:05:49.411Z,962.24
2017-11-15T06:06:49.395Z,962.29
2017-11-15T06:07:49.380Z,962.23
2017-11-15T06:08:49.366Z,962.3
2017-11-15T06:09:49.370Z,962.22
2017-11-15T06:10:49.350Z,962.28
2017-11-15T06:11:49.339Z,962.32
2017-11-15T06:12:49.412Z,962.28
2017-11-15T06:13:49.385Z,962.33
2017-11-15T06:14:49.310Z,962.33
2017-11-15T06:15:49.269Z,962.31
2017-11-15T06:16:49.243Z,962.33
2017-11-15T06:17:49.223Z,962.31
2017-11-15T06:18:49.230Z,962.33
2017-11-15T06:19:49.300Z,962.32
2017-11-15T06:20:49.191Z,962.33
2017-11-15T06:21:49.184Z,962.31
2017-11-15T06:22:49.261Z,962.36
2017-11-15T06:23:49.128Z,962.34
2017-11-15T06:24:49.112Z,962.4
2017-11-15T06:25:49.139Z,962.37
2017-11-15T06:26:49.129Z,962.37
2017-11-15T06:27:49.065Z,962.41
2017-11-15T06:28:49.153Z,962.38
2017-11-15T06:29:49.182Z,962.43
2017-11-15T06:30:49.149Z,962.4
2017-11-15T06:31:49.006Z,962.42
2017-11-15T06:32:49.033Z,962.43
2017-11-15T06:33:49.058Z,962.47
2017-11-15T06:34:48.955Z,962.48
2017-11-15T06:35:49.025Z,962.45
2017-11-15T06:36:49.004Z,962.53
2017-11-15T06:37:48.942Z,962.49
2017-11-15T06:38:48.893Z,962.49
2017-11-15T06:39:48.876Z,962.5
2017-11-15T06:40:48.869Z,962.51
2017-11-15T06:41:48.858Z,962.56
2017-11-15T06:42:48.831Z,962.57
2017-11-15T06:43:48.812Z,962.58
2017-11-15T06:44:48.799Z,962.6
2017-11-15T06:45:48.784Z,962.58
2017-11-15T06:46:48.768Z,962.6
2017-11-15T06:47:48.751Z,962.59
2017-11-15T06:48:48.755Z,962.6
2017-11-15T06:49:48.726Z,962.63
2017-11-15T06:50:48.708Z,962.64
2017-11-15T06:51:48.694Z,962.59
2017-11-15T06:52:48.676Z,962.59
2017-11-15T06:53:48.658Z,962.59
2017-11-15T06:54:48.648Z,962.59
2017-11-15T06:55:48.625Z,962.63
2017-11-15T06:56:48.612Z,962.59
2017-11-15T06:57:48.595Z,962.65
2017-11-15T06:58:48.587Z,962.66
2017-11-15T06:59:48.562Z,962.63
2017-11-15T07:00:48.548Z,962.7
2017-11-15T07:01:48.532Z,962.69
2017-11-15T07:02:48.519Z,962.71
2017-11-15T07:03:48.500Z,962.73
2017-11-15T07:04:48.493Z,962.69
2017-11-15T07:05:48.480Z,962.72
2017-11-15T07:06:48.454Z,962.71
2017-11-15T07:07:48.439Z,962.74
2017-11-15T07:08:48.425Z,962.69
2017-11-15T07:09:48.408Z,962.73
2017-11-15T07:10:48.393Z,962.74
2017-11-15T07:11:48.379Z,962.75
2017-11-15T07:12:48.363Z,962.77
2017-11-15T07:13:48.345Z,962.78
2017-11-15T07:14:48.330Z,962.78
2017-11-15T07:15:48.315Z,962.73
2017-11-15T07:16:48.298Z,962.7
2017-11-15T07:17:48.285Z,962.76
2017-11-15T07:18:48.285Z,962.8
2017-11-15T07:19:48.253Z,962.76
2017-11-15T07:20:48.236Z,962.8
2017-11-15T07:21:48.222Z,962.76
2017-11-15T07:22:48.206Z,962.79
2017-11-15T07:23:48.192Z,962.81
2017-11-15T07:24:48.174Z,962.84
2017-11-15T07:25:48.161Z,962.85
2017-11-15T07:26:48.147Z,962.86
2017-11-15T07:27:48.130Z,962.89
2017-11-15T07:28:48.114Z,962.92
2017-11-15T07:29:48.100Z,962.91
2017-11-15T07:30:48.083Z,962.91
2017-11-15T07:31:48.068Z,962.92
2017-11-15T07:32:48.052Z,962.96
2017-11-15T07:33:48.038Z,962.96
2017-11-15T07:34:48.023Z,962.95
2017-11-15T07:35:48.007Z,962.95
2017-11-15T07:36:47.993Z,962.94
2017-11-15T07:37:47.975Z,962.96
2017-11-15T07:38:47.962Z,962.92
2017-11-15T07:39:47.946Z,962.93
2017-11-15T07:40:47.951Z,962.91
2017-11-15T07:41:47.917Z,962.94
2017-11-15T07:42:47.899Z,962.92
2017-11-15T07:43:47.909Z,962.9
2017-11-15T07:44:47.871Z,962.94
2017-11-15T07:45:47.855Z,962.84
2017-11-15T07:46:47.840Z,962.88
2017-11-15T07:47:47.824Z,962.84
2017-11-15T07:48:47.815Z,962.85
2017-11-15T07:49:47.793Z,962.89
2017-11-15T07:50:47.804Z,962.88
2017-11-15T07:51:47.763Z,962.85
2017-11-15T07:52:47.751Z,962.88
2017-11-15T07:53:47.733Z,962.92
2017-11-15T07:54:47.722Z,962.94
2017-11-15T07:55:47.702Z,962.95
2017-11-15T07:56:47.688Z,962.96
2017-11-15T07:57:47.672Z,962.96
2017-11-15T07:58:47.660Z,962.97
2017-11-15T07:59:47.642Z,963
2017-11-15T08:00:47.628Z,962.96
2017-11-15T08:01:47.611Z,962.95
2017-11-15T08:02:47.598Z,962.94
2017-11-15T08:03:47.583Z,962.89
2017-11-15T08:04:47.567Z,962.93
2017-11-15T08:05:47.553Z,962.92
2017-11-15T08:06:47.537Z,962.95
2017-11-15T08:07:47.522Z,962.93
2017-11-15T08:08:47.507Z,962.96
2017-11-15T08:09:47.513Z,962.98
2017-11-15T08:10:47.481Z,962.97
2017-11-15T08:11:47.464Z,962.99
2017-11-15T08:12:47.448Z,962.96
2017-11-15T08:13:47.434Z,962.96
2017-11-15T08:14:47.441Z,962.99
2017-11-15T08:15:47.408Z,962.96
2017-11-15T08:16:47.390Z,963.01
2017-11-15T08:17:47.373Z,963.07
2017-11-15T08:18:47.360Z,962.97
2017-11-15T08:19:47.344Z,963.02
2017-11-15T08:20:47.329Z,963.01
2017-11-15T08:21:47.314Z,963
2017-11-15T08:22:47.302Z,962.99
2017-11-15T08:23:47.289Z,962.97
2017-11-15T08:24:47.278Z,962.92
2017-11-15T08:25:47.255Z,962.94
2017-11-15T08:26:47.242Z,962.93
2017-11-15T08:27:47.227Z,962.91
2017-11-15T08:28:47.214Z,962.9
2017-11-15T08:29:47.199Z,962.93
2017-11-15T08:30:47.185Z,962.95
2017-11-15T08:31:47.171Z,962.99
2017-11-15T08:32:47.157Z,963.01
2017-11-15T08:33:47.143Z,962.97
2017-11-15T08:34:47.127Z,963.04
2017-11-15T08:35:47.134Z,963.03
2017-11-15T08:36:47.099Z,963.04
2017-11-15T08:37:47.085Z,963.02
2017-11-15T08:38:47.071Z,963
2017-11-15T08:39:47.057Z,962.97
2017-11-15T08:40:47.041Z,962.98
2017-11-15T08:41:47.028Z,963.05
2017-11-15T08:42:47.014Z,962.99
2017-11-15T08:43:47.002Z,963.02
2017-11-15T08:44:46.997Z,963.07
2017-11-15T08:45:46.970Z,963.03
2017-11-15T08:46:46.959Z,963.04
2017-11-15T08:47:46.942Z,963.06
2017-11-15T08:48:46.929Z,963
2017-11-15T08:49:46.914Z,963.03
2017-11-15T08:50:46.902Z,963.02
2017-11-15T08:51:46.926Z,963.01
2017-11-15T08:52:46.886Z,963.02
2017-11-15T08:53:46.858Z,963.02
2017-11-15T08:54:46.845Z,963.02
2017-11-15T08:55:46.830Z,963.04
2017-11-15T08:56:46.817Z,963.01
2017-11-15T08:57:46.803Z,963.06
2017-11-15T08:58:46.789Z,963.07
2017-11-15T08:59:46.775Z,963.12
2017-11-15T09:00:46.760Z,963.1
2017-11-15T09:01:46.749Z,963.13
2017-11-15T09:02:46.739Z,963.13
2017-11-15T09:03:46.721Z,963.14
2017-11-15T09:04:46.706Z,963.11
2017-11-15T09:05:46.694Z,963.13
2017-11-15T09:06:46.679Z,963.13
2017-11-15T09:07:46.665Z,963.16
2017-11-15T09:08:46.653Z,963.17
2017-11-15T09:09:46.636Z,963.18
2017-11-15T09:10:46.622Z,963.15
2017-11-15T09:11:46.610Z,963.18
2017-11-15T09:12:46.596Z,963.16
2017-11-15T09:13:46.582Z,963.2
2017-11-15T09:14:46.567Z,963.21
2017-11-15T09:15:46.558Z,963.19
2017-11-15T09:16:46.540Z,963.2
2017-11-15T09:17:46.528Z,963.22
2017-11-15T09:18:46.514Z,963.19
2017-11-15T09:19:46.499Z,963.19
2017-11-15T09:20:46.487Z,963.2
2017-11-15T09:21:46.474Z,963.2
2017-11-15T09:22:46.460Z,963.22
2017-11-15T09:23:46.453Z,963.22
2017-11-15T09:24:46.433Z,963.2
2017-11-15T09:25:46.422Z,963.24
2017-11-15T09:26:46.406Z,963.23
2017-11-15T09:27:46.391Z,963.21
2017-11-15T09:28:46.379Z,963.21
2017-11-15T09:29:46.364Z,963.24
2017-11-15T09:30:46.354Z,963.23
2017-11-15T09:31:46.347Z,963.22
2017-11-15T09:32:46.325Z,963.25
2017-11-15T09:33:46.311Z,963.25
2017-11-15T09:34:46.318Z,963.24
2017-11-15T09:35:46.284Z,963.2
2017-11-15T09:36:46.291Z,963.27
2017-11-15T09:37:46.258Z,963.26
2017-11-15T09:38:46.248Z,963.31
2017-11-15T09:39:46.230Z,963.27
2017-11-15T09:40:46.224Z,963.28
2017-11-15T09:41:46.205Z,963.34
2017-11-15T09:42:46.190Z,963.31
2017-11-15T09:43:46.178Z,963.32
2017-11-15T09:44:46.164Z,963.31
2017-11-15T09:45:46.152Z,963.32
2017-11-15T09:46:46.137Z,963.28
2017-11-15T09:47:46.165Z,963.27
2017-11-15T09:48:46.111Z,963.29
2017-11-15T09:49:46.097Z,963.27
2017-11-15T09:50:46.100Z,963.3
2017-11-15T09:51:46.096Z,963.29
2017-11-15T09:52:46.059Z,963.31
2017-11-15T09:53:46.044Z,963.29
2017-11-15T09:54:46.032Z,963.24
2017-11-15T09:55:46.019Z,963.25
2017-11-15T09:56:46.007Z,963.27
2017-11-15T09:57:45.993Z,963.25
2017-11-15T09:58:45.979Z,963.27
2017-11-15T09:59:45.966Z,963.27
2017-11-15T10:00:45.952Z,963.23
2017-11-15T10:01:45.938Z,963.22
2017-11-15T10:02:45.933Z,963.21
2017-11-15T10:03:45.913Z,963.18
2017-11-15T10:04:45.899Z,963.21
2017-11-15T10:05:45.887Z,963.21
2017-11-15T10:06:45.879Z,963.17
2017-11-15T10:07:45.860Z,963.18
2017-11-15T10:08:45.847Z,963.18
2017-11-15T10:09:45.834Z,963.18
2017-11-15T10:10:45.821Z,963.16
2017-11-15T10:11:45.806Z,963.16
2017-11-15T10:12:45.795Z,963.15
2017-11-15T10:13:45.781Z,963.14
2017-11-15T10:14:45.767Z,963.13
2017-11-15T10:15:45.804Z,963.11
2017-11-15T10:16:45.742Z,963.15
2017-11-15T10:17:45.727Z,963.1
2017-11-15T10:18:45.714Z,963.09
2017-11-15T10:19:45.702Z,963.12
2017-11-15T10:20:45.688Z,963.12
2017-11-15T10:21:45.674Z,963.11
2017-11-15T10:22:45.660Z,963.11
2017-11-15T10:23:45.661Z,963.13
2017-11-15T10:24:45.634Z,963.12
2017-11-15T10:25:45.622Z,963.11
2017-11-15T10:26:45.611Z,963.05
2017-11-15T10:27:45.594Z,963.09
2017-11-15T10:28:45.582Z,963.07
2017-11-15T10:29:45.585Z,963.03
2017-11-15T10:30:45.560Z,963.04
2017-11-15T10:31:45.555Z,963.03
2017-11-15T10:32:45.529Z,963
2017-11-15T10:33:45.538Z,963.01
2017-11-15T10:34:45.502Z,962.99
2017-11-15T10:35:45.489Z,962.97
2017-11-15T10:36:45.476Z,962.99
2017-11-15T10:37:45.464Z,962.98
2017-11-15T10:38:45.459Z,962.93
2017-11-15T10:39:45.437Z,962.96
2017-11-15T10:40:45.430Z,962.92
2017-11-15T10:41:45.411Z,962.93
2017-11-15T10:42:45.400Z,962.9
2017-11-15T10:43:45.389Z,962.88
2017-11-15T10:44:45.372Z,962.86
2017-11-15T10:45:45.362Z,962.85
2017-11-15T10:46:45.349Z,962.83
2017-11-15T10:47:45.337Z,962.86
2017-11-15T10:48:45.325Z,962.85
2017-11-15T10:49:45.312Z,962.88
2017-11-15T10:50:45.298Z,962.81
2017-11-15T10:51:45.285Z,962.87
2017-11-15T10:52:45.274Z,962.85
2017-11-15T10:53:45.267Z,962.9
2017-11-15T10:54:45.248Z,962.88
2017-11-15T10:55:45.236Z,962.86
2017-11-15T10:56:45.226Z,962.93
2017-11-15T10:57:45.211Z,962.87
2017-11-15T10:58:45.198Z,962.86
2017-11-15T10:59:45.192Z,962.84
2017-11-15T11:00:45.173Z,962.82
2017-11-15T11:01:45.162Z,962.81
2017-11-15T11:02:45.149Z,962.76
2017-11-15T11:03:45.135Z,962.78
2017-11-15T11:04:45.123Z,962.84
2017-11-15T11:05:45.112Z,962.82
2017-11-15T11:06:45.101Z,962.83
2017-11-15T11:07:45.087Z,962.88
2017-11-15T11:08:45.076Z,962.88
2017-11-15T11:09:45.062Z,962.9
2017-11-15T11:10:45.051Z,962.92
2017-11-15T11:11:45.037Z,962.92
2017-11-15T11:12:45.026Z,962.93
2017-11-15T11:13:45.018Z,962.9
2017-11-15T11:14:45.001Z,962.89
2017-11-15T11:15:44.990Z,962.9
2017-11-15T11:16:44.976Z,962.91
2017-11-15T11:17:44.967Z,962.86
2017-11-15T11:18:44.950Z,962.88
2017-11-15T11:19:44.939Z,962.84
2017-11-15T11:20:44.930Z,962.85
2017-11-15T11:21:44.913Z,962.81
2017-11-15T11:22:44.902Z,962.86
2017-11-15T11:23:44.890Z,962.84
2017-11-15T11:24:44.877Z,962.84
2017-11-15T11:25:44.864Z,962.83
2017-11-15T11:26:44.853Z,962.81
2017-11-15T11:27:44.841Z,962.78
2017-11-15T11:28:44.834Z,962.76
2017-11-15T11:29:44.819Z,962.79
2017-11-15T11:30:44.802Z,962.77
2017-11-15T11:31:44.791Z,962.83
2017-11-15T11:32:44.778Z,962.82
2017-11-15T11:33:44.765Z,962.77
2017-11-15T11:34:44.752Z,962.73
2017-11-15T11:35:44.759Z,962.72
2017-11-15T11:36:44.728Z,962.73
2017-11-15T11:37:44.717Z,962.66
2017-11-15T11:38:44.703Z,962.68
2017-11-15T11:39:44.709Z,962.7
2017-11-15T11:40:44.693Z,962.65
2017-11-15T11:41:44.663Z,962.64
2017-11-15T11:42:44.654Z,962.65
2017-11-15T11:43:44.641Z,962.61
2017-11-15T11:44:44.635Z,962.6
2017-11-15T11:45:44.616Z,962.62
2017-11-15T11:46:44.603Z,962.61
2017-11-15T11:47:44.591Z,962.58
2017-11-15T11:48:44.578Z,962.59
2017-11-15T11:49:44.568Z,962.56
2017-11-15T11:50:44.551Z,962.54
2017-11-15T11:51:44.545Z,962.53
2017-11-15T11:52:44.528Z,962.53
2017-11-15T11:53:44.515Z,962.49
2017-11-15T11:54:44.502Z,962.51
2017-11-15T11:55:44.489Z,962.51
2017-11-15T11:56:44.477Z,962.56
2017-11-15T11:57:44.465Z,962.51
2017-11-15T11:58:44.452Z,962.47
2017-11-15T11:59:44.439Z,962.53
2017-11-15T12:00:44.431Z,962.54
2017-11-15T12:01:44.413Z,962.51
2017-11-15T12:02:44.403Z,962.54
2017-11-15T12:03:44.389Z,962.53
2017-11-15T12:04:44.378Z,962.5
2017-11-15T12:05:44.364Z,962.52
2017-11-15T12:06:44.351Z,962.55
2017-11-15T12:07:44.337Z,962.53
2017-11-15T12:08:44.327Z,962.55
2017-11-15T12:09:44.312Z,962.53
2017-11-15T12:10:44.300Z,962.47
2017-11-15T12:11:44.288Z,962.51
2017-11-15T12:12:44.275Z,962.51
2017-11-15T12:13:44.279Z,962.48
2017-11-15T12:14:44.250Z,962.51
2017-11-15T12:15:44.239Z,962.48
2017-11-15T12:16:44.224Z,962.51
2017-11-15T12:17:44.211Z,962.51
2017-11-15T12:18:44.201Z,962.48
2017-11-15T12:19:44.187Z,962.5
2017-11-15T12:20:44.175Z,962.5
2017-11-15T12:21:44.162Z,962.49
2017-11-15T12:22:44.149Z,962.48
2017-11-15T12:23:44.136Z,962.49
2017-11-15T12:24:44.124Z,962.52
2017-11-15T12:25:44.114Z,962.51
2017-11-15T12:26:44.102Z,962.55
2017-11-15T12:27:44.087Z,962.5
2017-11-15T12:28:44.075Z,962.53
2017-11-15T12:29:44.071Z,962.51
2017-11-15T12:30:44.050Z,962.48
2017-11-15T12:31:44.037Z,962.49